Time;durP1;ratioP1;P1;durP2;ratioP2;P2;SDS_P1;SDS_P2;PMS_P1;PMS_P2;Temp;Humidity;BMP_temperature;BMP_pressure;BME280_temperature;BME280_humidity;BME280_pressure;Samples;Min_cycle;Max_cycle;Signal;HPM_P1;HPM_P2
2022/07/07 00:02:21;;;;;;;3.45;1.10;;;;;;;;;;5104340;28;20036;-76
2022/07/07 00:04:47;;;;;;;2.47;0.90;;;;;;;;;;5105913;28;20028;-76
2022/07/07 00:07:13;;;;;;;3.05;0.80;;;;;;;;;;5104055;28;20096;-77
2022/07/07 00:09:40;;;;;;;4.15;1.00;;;;;;;;;;5106085;28;20027;-76
2022/07/07 00:12:06;;;;;;;3.83;1.13;;;;;;;;;;5097649;28;20074;-76
2022/07/07 00:14:32;;;;;;;5.53;0.85;;;;;;;;;;5103451;28;20469;-76
2022/07/07 00:16:59;;;;;;;3.67;1.00;;;;;;;;;;5101886;28;20054;-76
2022/07/07 00:19:25;;;;;;;5.10;1.10;;;;;;;;;;5102249;28;20427;-76
2022/07/07 00:21:52;;;;;;;3.88;0.90;;;;;;;;;;5099030;28;20549;-77
2022/07/07 00:24:18;;;;;;;3.80;1.02;;;;;;;;;;5104138;28;20040;-77
2022/07/07 00:26:44;;;;;;;4.65;1.00;;;;;;;;;;5109129;28;20031;-76
2022/07/07 00:29:10;;;;;;;2.65;0.90;;;;;;;;;;5099877;28;20545;-77
2022/07/07 00:31:36;;;;;;;2.85;0.98;;;;;;;;;;5109885;28;20248;-76
2022/07/07 00:34:02;;;;;;;3.42;1.10;;;;;;;;;;5109748;28;20847;-76
2022/07/07 00:36:28;;;;;;;3.45;1.20;;;;;;;;;;5099548;28;20035;-77
2022/07/07 00:38:54;;;;;;;5.63;1.45;;;;;;;;;;5097747;28;20029;-76
2022/07/07 00:41:20;;;;;;;3.33;1.20;;;;;;;;;;5102422;28;20024;-77
2022/07/07 00:43:46;;;;;;;2.83;1.00;;;;;;;;;;5104119;28;20051;-76
2022/07/07 00:46:12;;;;;;;7.35;1.25;;;;;;;;;;5098892;28;20036;-77
2022/07/07 00:48:39;;;;;;;2.63;1.08;;;;;;;;;;5094572;28;20064;-76
2022/07/07 00:51:06;;;;;;;6.22;1.15;;;;;;;;;;5102066;28;20031;-76
2022/07/07 00:53:32;;;;;;;3.90;1.00;;;;;;;;;;5101745;28;20032;-77
2022/07/07 00:55:58;;;;;;;6.50;1.13;;;;;;;;;;5102818;28;20042;-77
2022/07/07 00:58:24;;;;;;;5.53;1.20;;;;;;;;;;5094911;28;20043;-76
2022/07/07 01:00:50;;;;;;;3.42;1.00;;;;;;;;;;5094805;28;20032;-77
2022/07/07 01:03:16;;;;;;;4.38;1.20;;;;;;;;;;5104663;28;20039;-76
2022/07/07 01:05:45;;;;;;;3.85;0.90;;;;;;;;;;5106053;28;20042;-77
2022/07/07 01:08:14;;;;;;;4.85;1.20;;;;;;;;;;5093196;28;20494;-76
2022/07/07 01:10:41;;;;;;;4.93;1.00;;;;;;;;;;5093897;28;20465;-76
2022/07/07 01:13:06;;;;;;;7.70;1.65;;;;;;;;;;5101444;28;20499;-76
2022/07/07 01:15:33;;;;;;;5.05;1.35;;;;;;;;;;5101976;28;20027;-76
2022/07/07 01:17:59;;;;;;;3.00;1.00;;;;;;;;;;5094545;28;20039;-77
2022/07/07 01:20:26;;;;;;;3.78;1.10;;;;;;;;;;5106074;28;20039;-77
2022/07/07 01:22:52;;;;;;;2.08;0.90;;;;;;;;;;5104746;28;20031;-77
2022/07/07 01:25:19;;;;;;;4.97;1.55;;;;;;;;;;5105905;28;20128;-77
2022/07/07 01:27:45;;;;;;;5.63;1.20;;;;;;;;;;5104602;28;20073;-76
2022/07/07 01:30:11;;;;;;;5.60;1.05;;;;;;;;;;5092752;28;20474;-77
2022/07/07 01:32:37;;;;;;;6.40;1.38;;;;;;;;;;5093946;28;20028;-77
2022/07/07 01:35:03;;;;;;;9.23;4.38;;;;;;;;;;5094753;28;20028;-77
2022/07/07 01:37:29;;;;;;;11.13;5.20;;;;;;;;;;5096144;28;20357;-76
2022/07/07 01:39:55;;;;;;;10.10;5.00;;;;;;;;;;5097282;28;20028;-77
2022/07/07 01:42:21;;;;;;;9.00;5.15;;;;;;;;;;5101376;28;20032;-76
2022/07/07 01:44:51;;;;;;;9.15;4.13;;;;;;;;;;5090089;28;20052;-76
2022/07/07 01:47:17;;;;;;;5.00;2.10;;;;;;;;;;5093645;28;20035;-77
2022/07/07 01:49:43;;;;;;;2.95;1.08;;;;;;;;;;5095611;28;20040;-76
2022/07/07 01:52:09;;;;;;;5.10;1.15;;;;;;;;;;5098762;28;20032;-76
2022/07/07 01:54:36;;;;;;;5.38;1.50;;;;;;;;;;5096196;28;20036;-76
2022/07/07 01:57:03;;;;;;;5.22;1.42;;;;;;;;;;5103972;28;20031;-77
2022/07/07 01:59:29;;;;;;;5.57;1.63;;;;;;;;;;5095003;28;20040;-77
2022/07/07 02:01:55;;;;;;;7.75;1.88;;;;;;;;;;5098117;28;20109;-76
2022/07/07 02:04:21;;;;;;;7.35;1.73;;;;;;;;;;5097333;28;20039;-76
2022/07/07 02:06:47;;;;;;;6.22;1.50;;;;;;;;;;5093402;28;20390;-76
2022/07/07 02:09:13;;;;;;;3.28;1.20;;;;;;;;;;5105890;28;20489;-76
2022/07/07 02:11:40;;;;;;;3.22;1.15;;;;;;;;;;5098717;28;20039;-76
2022/07/07 02:14:06;;;;;;;4.05;1.10;;;;;;;;;;5103336;28;20035;-76
2022/07/07 02:16:33;;;;;;;4.47;1.10;;;;;;;;;;5102030;28;20024;-76
2022/07/07 02:19:02;;;;;;;4.93;1.75;;;;;;;;;;5100563;28;20133;-76
2022/07/07 02:21:28;;;;;;;4.55;1.05;;;;;;;;;;5104223;28;20035;-77
2022/07/07 02:23:55;;;;;;;3.85;1.27;;;;;;;;;;5103763;28;20062;-76
2022/07/07 02:26:21;;;;;;;3.15;1.08;;;;;;;;;;5093253;28;20028;-77
2022/07/07 02:28:47;;;;;;;5.63;1.30;;;;;;;;;;5103587;28;20470;-76
2022/07/07 02:31:13;;;;;;;7.57;1.60;;;;;;;;;;5090574;28;20027;-76
2022/07/07 02:33:40;;;;;;;4.50;1.27;;;;;;;;;;5087777;28;20047;-76
2022/07/07 02:36:06;;;;;;;4.53;1.20;;;;;;;;;;5100332;28;20101;-76
2022/07/07 02:38:32;;;;;;;7.80;1.70;;;;;;;;;;5100089;28;20031;-76
2022/07/07 02:40:59;;;;;;;9.98;2.15;;;;;;;;;;5101482;28;20428;-76
2022/07/07 02:43:25;;;;;;;4.97;1.52;;;;;;;;;;5098990;28;20145;-76
2022/07/07 02:45:51;;;;;;;2.75;1.10;;;;;;;;;;5105398;28;20031;-76
2022/07/07 02:48:18;;;;;;;5.90;1.33;;;;;;;;;;5099068;28;20462;-77
2022/07/07 02:50:44;;;;;;;4.70;1.23;;;;;;;;;;5100873;28;20062;-76
2022/07/07 02:53:11;;;;;;;3.70;1.10;;;;;;;;;;5099827;28;20051;-76
2022/07/07 02:55:37;;;;;;;5.22;1.50;;;;;;;;;;5103979;28;20031;-76
2022/07/07 02:58:04;;;;;;;8.30;1.20;;;;;;;;;;5091631;28;20063;-76
2022/07/07 03:00:33;;;;;;;3.78;1.27;;;;;;;;;;5103814;28;20119;-76
2022/07/07 03:03:00;;;;;;;2.90;1.10;;;;;;;;;;5096395;28;20119;-76
2022/07/07 03:05:26;;;;;;;3.20;1.23;;;;;;;;;;5092947;28;20035;-76
2022/07/07 03:07:52;;;;;;;6.90;1.33;;;;;;;;;;5108078;28;20035;-76
2022/07/07 03:10:18;;;;;;;5.22;1.40;;;;;;;;;;5105930;28;20028;-76
2022/07/07 03:12:44;;;;;;;3.40;1.40;;;;;;;;;;5091750;28;20043;-76
2022/07/07 03:15:10;;;;;;;6.15;1.60;;;;;;;;;;5098209;28;20028;-77
2022/07/07 03:17:37;;;;;;;6.60;1.70;;;;;;;;;;5099281;28;20039;-77
2022/07/07 03:20:03;;;;;;;5.18;1.55;;;;;;;;;;5098344;28;20061;-76
2022/07/07 03:22:29;;;;;;;6.30;1.58;;;;;;;;;;5099969;28;20035;-77
2022/07/07 03:24:55;;;;;;;4.88;1.33;;;;;;;;;;5104374;28;20043;-76
2022/07/07 03:27:21;;;;;;;7.13;1.88;;;;;;;;;;5095968;28;20036;-76
2022/07/07 03:29:47;;;;;;;7.70;2.25;;;;;;;;;;5090844;28;20374;-76
2022/07/07 03:32:13;;;;;;;6.28;2.20;;;;;;;;;;5087954;28;20036;-76
2022/07/07 03:34:39;;;;;;;4.25;1.42;;;;;;;;;;5089512;28;20028;-76
2022/07/07 03:37:05;;;;;;;6.13;2.08;;;;;;;;;;5103261;28;20028;-77
2022/07/07 03:39:31;;;;;;;7.65;2.30;;;;;;;;;;5103360;28;20367;-76
2022/07/07 03:41:57;;;;;;;5.45;2.20;;;;;;;;;;5088527;28;20101;-76
2022/07/07 03:44:23;;;;;;;6.35;2.25;;;;;;;;;;5101338;28;20192;-76
2022/07/07 03:46:49;;;;;;;4.57;2.08;;;;;;;;;;5099240;28;20477;-77
2022/07/07 03:49:15;;;;;;;4.60;1.83;;;;;;;;;;5099863;28;20075;-76
2022/07/07 03:51:42;;;;;;;4.88;1.52;;;;;;;;;;5086593;28;20056;-77
2022/07/07 03:54:08;;;;;;;6.10;2.25;;;;;;;;;;5101105;28;20050;-76
2022/07/07 03:56:34;;;;;;;7.18;1.67;;;;;;;;;;5093674;28;20025;-76
2022/07/07 03:59:00;;;;;;;3.58;1.27;;;;;;;;;;5096186;28;20040;-76
2022/07/07 04:01:26;;;;;;;4.97;1.83;;;;;;;;;;5101215;28;20032;-76
2022/07/07 04:03:52;;;;;;;4.85;1.73;;;;;;;;;;5088719;28;20055;-77
2022/07/07 04:06:18;;;;;;;5.22;1.60;;;;;;;;;;5096956;28;20032;-76
2022/07/07 04:08:44;;;;;;;8.20;1.85;;;;;;;;;;5089187;28;20035;-76
2022/07/07 04:11:10;;;;;;;3.78;1.42;;;;;;;;;;5098308;28;20035;-76
2022/07/07 04:13:36;;;;;;;7.15;2.25;;;;;;;;;;5097191;28;20488;-76
2022/07/07 04:16:02;;;;;;;5.65;2.25;;;;;;;;;;5102039;28;20059;-77
2022/07/07 04:18:28;;;;;;;3.90;1.90;;;;;;;;;;5096331;28;20136;-77
2022/07/07 04:20:54;;;;;;;5.63;1.88;;;;;;;;;;5096936;28;20020;-76
2022/07/07 04:23:20;;;;;;;4.78;1.88;;;;;;;;;;5097963;28;20046;-76
2022/07/07 04:25:46;;;;;;;5.63;1.67;;;;;;;;;;5098738;28;20561;-77
2022/07/07 04:28:12;;;;;;;6.15;1.85;;;;;;;;;;5105857;28;20031;-76
2022/07/07 04:30:38;;;;;;;6.22;1.80;;;;;;;;;;5095411;28;20849;-76
2022/07/07 04:33:04;;;;;;;8.00;1.80;;;;;;;;;;5101300;28;20031;-76
2022/07/07 04:35:30;;;;;;;5.07;2.00;;;;;;;;;;5095248;28;20076;-77
2022/07/07 04:37:56;;;;;;;7.90;1.63;;;;;;;;;;5101490;28;20027;-77
2022/07/07 04:40:22;;;;;;;4.97;1.70;;;;;;;;;;5104203;28;20561;-76
2022/07/07 04:42:48;;;;;;;5.47;2.03;;;;;;;;;;5096105;28;20035;-77
2022/07/07 04:45:14;;;;;;;7.45;2.70;;;;;;;;;;5094908;28;20490;-76
2022/07/07 04:47:41;;;;;;;9.77;2.15;;;;;;;;;;5092042;28;20498;-76
2022/07/07 04:50:10;;;;;;;8.23;2.20;;;;;;;;;;5098965;28;20070;-76
2022/07/07 04:52:37;;;;;;;8.65;2.30;;;;;;;;;;5092177;28;20039;-77
2022/07/07 04:55:03;;;;;;;5.82;1.50;;;;;;;;;;5091387;28;20024;-77
2022/07/07 04:57:30;;;;;;;6.80;1.98;;;;;;;;;;5096285;28;20056;-76
2022/07/07 04:59:56;;;;;;;10.07;2.08;;;;;;;;;;5098199;28;20033;-76
2022/07/07 05:02:22;;;;;;;6.30;2.13;;;;;;;;;;5104726;28;20032;-76
2022/07/07 05:04:49;;;;;;;6.53;1.80;;;;;;;;;;5096480;28;20082;-76
2022/07/07 05:07:15;;;;;;;7.32;2.47;;;;;;;;;;5101709;28;20074;-76
2022/07/07 05:09:41;;;;;;;3.95;2.30;;;;;;;;;;5101812;28;20044;-76
2022/07/07 05:12:08;;;;;;;15.68;4.03;;;;;;;;;;5098036;28;20027;-76
2022/07/07 05:14:34;;;;;;;9.43;3.13;;;;;;;;;;5100825;28;20086;-76
2022/07/07 05:17:00;;;;;;;5.85;2.72;;;;;;;;;;5104038;28;20584;-76
2022/07/07 05:19:26;;;;;;;9.45;2.55;;;;;;;;;;5097618;28;20043;-77
2022/07/07 05:21:52;;;;;;;7.03;2.20;;;;;;;;;;5099042;28;20128;-77
2022/07/07 05:24:18;;;;;;;8.52;2.20;;;;;;;;;;5102255;28;20040;-77
2022/07/07 05:26:44;;;;;;;5.10;2.50;;;;;;;;;;5101302;28;20027;-77
2022/07/07 05:29:11;;;;;;;4.75;1.50;;;;;;;;;;5092971;28;20051;-76
2022/07/07 05:31:37;;;;;;;11.18;1.45;;;;;;;;;;5101302;28;20031;-76
2022/07/07 05:34:03;;;;;;;6.05;1.73;;;;;;;;;;5107506;28;20390;-77
2022/07/07 05:36:29;;;;;;;6.45;1.90;;;;;;;;;;5089825;28;20371;-77
2022/07/07 05:38:56;;;;;;;5.28;1.75;;;;;;;;;;5096180;28;20043;-77
2022/07/07 05:41:22;;;;;;;8.57;1.80;;;;;;;;;;5100122;28;20077;-77
2022/07/07 05:43:48;;;;;;;4.53;1.90;;;;;;;;;;5102751;28;20056;-76
2022/07/07 05:46:14;;;;;;;6.50;1.40;;;;;;;;;;5096345;28;20031;-76
2022/07/07 05:48:40;;;;;;;8.02;2.08;;;;;;;;;;5091499;28;20039;-76
2022/07/07 05:51:06;;;;;;;5.13;1.30;;;;;;;;;;5091454;28;20036;-76
2022/07/07 05:53:32;;;;;;;4.57;1.33;;;;;;;;;;5101586;28;20051;-76
2022/07/07 05:55:58;;;;;;;4.63;1.35;;;;;;;;;;5095177;28;20068;-76
2022/07/07 05:58:24;;;;;;;4.95;1.30;;;;;;;;;;5098010;28;20028;-76
2022/07/07 06:00:51;;;;;;;4.15;1.30;;;;;;;;;;5096690;28;20036;-76
2022/07/07 06:03:17;;;;;;;6.55;1.35;;;;;;;;;;5099187;28;20039;-76
2022/07/07 06:05:43;;;;;;;7.05;2.03;;;;;;;;;;5100686;28;20066;-76
2022/07/07 06:08:09;;;;;;;5.78;1.77;;;;;;;;;;5101837;28;20781;-78
2022/07/07 06:10:35;;;;;;;7.40;1.83;;;;;;;;;;5093315;28;20035;-76
2022/07/07 06:13:02;;;;;;;7.10;1.80;;;;;;;;;;5099241;28;20032;-76
2022/07/07 06:15:30;;;;;;;12.35;2.42;;;;;;;;;;5103975;28;20042;-76
2022/07/07 06:17:56;;;;;;;7.50;2.13;;;;;;;;;;5095757;28;20039;-76
2022/07/07 06:20:22;;;;;;;11.13;2.40;;;;;;;;;;5100787;28;20092;-76
2022/07/07 06:22:48;;;;;;;6.28;1.70;;;;;;;;;;5099590;28;20040;-76
2022/07/07 06:25:14;;;;;;;7.40;2.17;;;;;;;;;;5098443;28;20040;-76
2022/07/07 06:27:40;;;;;;;5.97;1.63;;;;;;;;;;5090426;28;20044;-76
2022/07/07 06:30:07;;;;;;;5.72;1.98;;;;;;;;;;5097973;28;20036;-76
2022/07/07 06:32:33;;;;;;;7.32;2.00;;;;;;;;;;5098591;28;20106;-76
2022/07/07 06:34:59;;;;;;;4.72;1.55;;;;;;;;;;5095548;28;20031;-76
2022/07/07 06:37:25;;;;;;;5.38;2.20;;;;;;;;;;5103663;28;20032;-78
2022/07/07 06:39:51;;;;;;;7.38;1.55;;;;;;;;;;5099219;28;20032;-76
2022/07/07 06:42:17;;;;;;;4.30;1.40;;;;;;;;;;5094861;28;20036;-76
2022/07/07 06:44:43;;;;;;;3.60;1.23;;;;;;;;;;5094516;28;20055;-76
2022/07/07 06:47:09;;;;;;;5.78;1.63;;;;;;;;;;5103317;28;20629;-76
2022/07/07 06:49:35;;;;;;;6.00;1.58;;;;;;;;;;5099241;28;20040;-76
2022/07/07 06:52:01;;;;;;;4.93;1.50;;;;;;;;;;5100413;28;20106;-76
2022/07/07 06:54:27;;;;;;;9.77;1.80;;;;;;;;;;5097737;28;20043;-76
2022/07/07 06:56:53;;;;;;;4.80;1.50;;;;;;;;;;5099060;28;20057;-76
2022/07/07 06:59:19;;;;;;;6.70;1.40;;;;;;;;;;5101701;28;20038;-76
2022/07/07 07:01:46;;;;;;;7.93;1.40;;;;;;;;;;5100695;28;20026;-76
2022/07/07 07:04:13;;;;;;;6.57;1.20;;;;;;;;;;5100295;28;20034;-76
2022/07/07 07:06:40;;;;;;;6.80;1.50;;;;;;;;;;5096279;28;20047;-76
2022/07/07 07:09:06;;;;;;;3.85;1.33;;;;;;;;;;5096870;28;20036;-77
2022/07/07 07:11:32;;;;;;;5.57;1.48;;;;;;;;;;5095741;28;20485;-76
2022/07/07 07:13:58;;;;;;;5.30;1.40;;;;;;;;;;5097619;28;20058;-76
2022/07/07 07:16:25;;;;;;;7.90;2.08;;;;;;;;;;5104487;28;20031;-76
2022/07/07 07:18:51;;;;;;;7.88;2.35;;;;;;;;;;5106972;28;20055;-76
2022/07/07 07:21:17;;;;;;;9.40;2.40;;;;;;;;;;5098789;28;20462;-76
2022/07/07 07:23:43;;;;;;;7.63;2.25;;;;;;;;;;5092830;28;20043;-76
2022/07/07 07:26:09;;;;;;;10.80;3.13;;;;;;;;;;5095885;28;20035;-76
2022/07/07 07:28:35;;;;;;;6.97;1.70;;;;;;;;;;5092118;28;20032;-76
2022/07/07 07:31:01;;;;;;;8.15;2.05;;;;;;;;;;5100237;28;20462;-76
2022/07/07 07:33:31;;;;;;;10.48;2.60;;;;;;;;;;5099987;28;20161;-76
2022/07/07 07:35:57;;;;;;;7.07;2.13;;;;;;;;;;5098161;28;20047;-76
2022/07/07 07:38:23;;;;;;;10.75;2.03;;;;;;;;;;5096238;28;20027;-76
2022/07/07 07:40:49;;;;;;;6.72;1.85;;;;;;;;;;5095698;28;20032;-76
2022/07/07 07:43:15;;;;;;;9.52;2.10;;;;;;;;;;5092902;28;20036;-77
2022/07/07 07:45:41;;;;;;;6.32;2.22;;;;;;;;;;5096761;28;20122;-77
2022/07/07 07:48:08;;;;;;;7.68;1.73;;;;;;;;;;5101830;28;20099;-76
2022/07/07 07:50:34;;;;;;;4.53;1.70;;;;;;;;;;5094738;28;20055;-76
2022/07/07 07:53:03;;;;;;;7.03;1.90;;;;;;;;;;5097141;28;20043;-76
2022/07/07 07:55:30;;;;;;;7.68;1.70;;;;;;;;;;5102264;28;20045;-76
2022/07/07 07:57:56;;;;;;;6.50;1.45;;;;;;;;;;5101623;28;20110;-76
2022/07/07 08:00:23;;;;;;;19.65;2.20;;;;;;;;;;5109042;28;20110;-76
2022/07/07 08:02:49;;;;;;;5.45;1.35;;;;;;;;;;5101381;28;20054;-76
2022/07/07 08:05:17;;;;;;;4.97;1.42;;;;;;;;;;5103420;28;20401;-76
2022/07/07 08:07:43;;;;;;;10.45;1.70;;;;;;;;;;5103597;28;20040;-76
2022/07/07 08:10:10;;;;;;;5.95;1.40;;;;;;;;;;5101396;28;20024;-76
2022/07/07 08:12:37;;;;;;;5.43;1.63;;;;;;;;;;5100172;28;20526;-76
2022/07/07 08:15:04;;;;;;;7.38;2.78;;;;;;;;;;5102505;28;20035;-76
2022/07/07 08:17:30;;;;;;;9.02;1.70;;;;;;;;;;5099432;28;20069;-76
2022/07/07 08:19:56;;;;;;;7.38;1.70;;;;;;;;;;5099702;28;20032;-76
2022/07/07 08:22:22;;;;;;;6.85;1.60;;;;;;;;;;5099818;28;20636;-76
2022/07/07 08:24:48;;;;;;;5.65;1.50;;;;;;;;;;5100165;28;20062;-77
2022/07/07 08:27:14;;;;;;;5.93;1.67;;;;;;;;;;5099667;28;20133;-76
2022/07/07 08:29:40;;;;;;;7.28;1.63;;;;;;;;;;5103274;28;20031;-76
2022/07/07 08:32:07;;;;;;;5.93;1.40;;;;;;;;;;5104770;28;20363;-76
2022/07/07 08:34:34;;;;;;;6.22;1.42;;;;;;;;;;5101734;28;20075;-76
2022/07/07 08:37:00;;;;;;;11.98;1.70;;;;;;;;;;5103716;28;20034;-76
2022/07/07 08:39:26;;;;;;;9.02;1.52;;;;;;;;;;5101731;28;20047;-76
2022/07/07 08:41:52;;;;;;;6.28;1.50;;;;;;;;;;5099231;28;20583;-76
2022/07/07 08:44:19;;;;;;;3.00;1.30;;;;;;;;;;5097488;28;20138;-76
2022/07/07 08:46:45;;;;;;;5.45;1.25;;;;;;;;;;5097559;28;20824;-76
2022/07/07 08:49:11;;;;;;;7.95;1.73;;;;;;;;;;5096077;28;20887;-76
2022/07/07 08:51:41;;;;;;;6.78;1.23;;;;;;;;;;5097217;28;20059;-76
2022/07/07 08:54:09;;;;;;;4.00;1.30;;;;;;;;;;5104460;28;20394;-76
2022/07/07 08:56:36;;;;;;;9.02;1.50;;;;;;;;;;5103738;28;20024;-76
2022/07/07 08:59:02;;;;;;;9.43;1.90;;;;;;;;;;5102269;28;20122;-76
2022/07/07 09:01:29;;;;;;;8.10;1.33;;;;;;;;;;5096965;28;20024;-76
2022/07/07 09:03:55;;;;;;;6.22;1.60;;;;;;;;;;5101224;28;20050;-76
2022/07/07 09:06:21;;;;;;;4.80;1.30;;;;;;;;;;5099204;28;20712;-77
2022/07/07 09:08:47;;;;;;;6.85;1.40;;;;;;;;;;5099965;28;20039;-76
2022/07/07 09:11:13;;;;;;;6.50;1.65;;;;;;;;;;5098266;28;20031;-76
2022/07/07 09:13:39;;;;;;;7.20;1.33;;;;;;;;;;5100512;28;20051;-76
2022/07/07 09:16:13;;;;;;;7.25;1.55;;;;;;;;;;5102685;28;20035;-76
2022/07/07 09:18:41;;;;;;;8.10;1.52;;;;;;;;;;5099660;28;20032;-76
2022/07/07 09:21:08;;;;;;;5.25;1.73;;;;;;;;;;5101033;28;20035;-76
2022/07/07 09:23:34;;;;;;;6.18;1.65;;;;;;;;;;5098312;28;20040;-76
2022/07/07 09:26:01;;;;;;;7.53;1.70;;;;;;;;;;5099980;28;20733;-76
2022/07/07 09:28:27;;;;;;;5.35;1.70;;;;;;;;;;5094910;28;20059;-76
2022/07/07 09:30:54;;;;;;;6.93;2.03;;;;;;;;;;5102947;28;20064;-76
2022/07/07 09:33:21;;;;;;;9.10;1.58;;;;;;;;;;5104576;28;20081;-76
2022/07/07 09:38:33;;;;;;;5.03;1.75;;;;;;;;;;5099122;28;20038;-76
2022/07/07 09:41:03;;;;;;;5.68;1.90;;;;;;;;;;5103377;28;20019;-76
2022/07/07 09:43:39;;;;;;;10.88;1.63;;;;;;;;;;5099483;28;20055;-76
2022/07/07 09:46:09;;;;;;;6.53;1.50;;;;;;;;;;5099955;28;20028;-76
2022/07/07 09:48:36;;;;;;;7.72;1.40;;;;;;;;;;5099320;28;20039;-76
2022/07/07 09:51:12;;;;;;;6.75;1.50;;;;;;;;;;5098747;28;20159;-76
2022/07/07 09:53:57;;;;;;;4.85;1.27;;;;;;;;;;5096381;28;20063;-76
2022/07/07 09:56:25;;;;;;;7.70;1.63;;;;;;;;;;5094805;28;20035;-76
2022/07/07 09:58:52;;;;;;;9.13;1.50;;;;;;;;;;5090588;28;20036;-76
2022/07/07 10:01:21;;;;;;;11.25;1.58;;;;;;;;;;5096835;28;20359;-77
2022/07/07 10:03:47;;;;;;;5.80;1.70;;;;;;;;;;5098617;28;20032;-76
2022/07/07 10:06:13;;;;;;;6.47;1.40;;;;;;;;;;5100365;28;20036;-76
2022/07/07 10:08:43;;;;;;;9.55;1.40;;;;;;;;;;5103444;28;20557;-77
2022/07/07 10:11:10;;;;;;;5.10;1.33;;;;;;;;;;5099507;28;20099;-77
2022/07/07 10:13:37;;;;;;;5.25;1.52;;;;;;;;;;5099110;28;20043;-76
2022/07/07 10:16:06;;;;;;;9.05;1.40;;;;;;;;;;5095838;28;20065;-76
2022/07/07 10:18:32;;;;;;;6.40;1.40;;;;;;;;;;5096063;28;20035;-76
2022/07/07 10:20:58;;;;;;;4.95;1.30;;;;;;;;;;5097257;28;20027;-77
2022/07/07 10:23:25;;;;;;;4.78;1.00;;;;;;;;;;5093828;28;20742;-76
2022/07/07 10:26:04;;;;;;;4.68;1.30;;;;;;;;;;5095326;28;20046;-76
2022/07/07 10:28:48;;;;;;;7.07;1.20;;;;;;;;;;5095055;28;20036;-76
2022/07/07 10:31:25;;;;;;;4.22;1.25;;;;;;;;;;5101917;28;20091;-76
2022/07/07 10:33:54;;;;;;;6.75;1.48;;;;;;;;;;5096386;28;20051;-76
2022/07/07 10:36:21;;;;;;;3.22;1.27;;;;;;;;;;5101646;28;20039;-76
2022/07/07 10:38:48;;;;;;;7.45;1.52;;;;;;;;;;5094549;28;20056;-76
2022/07/07 10:41:18;;;;;;;4.78;1.10;;;;;;;;;;5096278;28;20462;-76
2022/07/07 10:43:45;;;;;;;5.25;1.35;;;;;;;;;;5095468;28;20056;-76
2022/07/07 10:46:11;;;;;;;8.73;1.30;;;;;;;;;;5096366;28;20040;-77
2022/07/07 10:48:44;;;;;;;3.97;0.98;;;;;;;;;;5095154;28;20032;-77
2022/07/07 10:51:19;;;;;;;3.58;0.95;;;;;;;;;;5096832;28;20074;-76
2022/07/07 10:53:54;;;;;;;6.40;1.08;;;;;;;;;;5091337;28;20508;-76
2022/07/07 10:56:20;;;;;;;1.90;0.60;;;;;;;;;;5096523;28;20498;-76
2022/07/07 10:58:53;;;;;;;2.85;0.70;;;;;;;;;;5097682;28;20036;-76
2022/07/07 11:01:20;;;;;;;4.47;0.70;;;;;;;;;;5094246;28;20038;-76
2022/07/07 11:03:46;;;;;;;3.22;0.60;;;;;;;;;;5102757;28;20039;-76
2022/07/07 11:06:12;;;;;;;3.40;0.57;;;;;;;;;;5103037;28;20068;-76
2022/07/07 11:08:38;;;;;;;4.55;0.75;;;;;;;;;;5097587;28;20101;-76
2022/07/07 11:11:05;;;;;;;5.10;0.70;;;;;;;;;;5102027;28;20039;-76
2022/07/07 11:13:32;;;;;;;3.05;0.68;;;;;;;;;;5101885;28;20046;-76
2022/07/07 11:16:14;;;;;;;2.25;0.52;;;;;;;;;;5097482;28;20058;-77
2022/07/07 11:18:39;;;;;;;;;;;;;;;;;;5089663;28;20524;-77
2022/07/07 11:21:06;;;;;;;2.45;0.60;;;;;;;;;;5094285;28;19912;-76
2022/07/07 11:23:50;;;;;;;4.25;0.60;;;;;;;;;;5094981;28;20106;-77
2022/07/07 11:26:20;;;;;;;4.43;0.98;;;;;;;;;;5092102;28;20085;-76
2022/07/07 11:28:47;;;;;;;2.97;0.50;;;;;;;;;;5094211;28;20030;-76
2022/07/07 11:31:13;;;;;;;1.15;0.40;;;;;;;;;;5095810;28;20073;-76
2022/07/07 11:33:39;;;;;;;2.90;0.43;;;;;;;;;;5093553;28;20054;-76
2022/07/07 11:36:09;;;;;;;2.08;0.57;;;;;;;;;;5099757;28;20020;-76
2022/07/07 11:38:35;;;;;;;1.20;0.40;;;;;;;;;;5092050;28;20535;-76
2022/07/07 11:41:01;;;;;;;1.88;0.40;;;;;;;;;;5088326;28;20396;-76
2022/07/07 11:43:27;;;;;;;1.33;0.40;;;;;;;;;;5096342;28;20639;-76
2022/07/07 11:45:53;;;;;;;2.95;0.50;;;;;;;;;;5097758;28;20015;-76
2022/07/07 11:48:19;;;;;;;5.13;0.50;;;;;;;;;;5097658;28;20032;-76
2022/07/07 11:50:46;;;;;;;1.70;0.30;;;;;;;;;;5098486;28;20024;-76
2022/07/07 11:53:13;;;;;;;1.92;0.43;;;;;;;;;;5098599;28;20035;-76
2022/07/07 11:55:40;;;;;;;1.35;0.40;;;;;;;;;;5097396;28;20110;-76
2022/07/07 11:58:08;;;;;;;1.35;0.40;;;;;;;;;;5095855;28;20031;-76
2022/07/07 12:00:36;;;;;;;2.45;0.60;;;;;;;;;;5092370;28;20083;-76
2022/07/07 12:03:04;;;;;;;0.65;0.32;;;;;;;;;;5093667;28;20067;-76
2022/07/07 12:05:31;;;;;;;1.33;0.30;;;;;;;;;;5095220;28;20036;-76
2022/07/07 12:08:02;;;;;;;4.03;0.70;;;;;;;;;;5095480;28;20068;-77
2022/07/07 12:10:28;;;;;;;1.38;0.50;;;;;;;;;;5089710;28;20055;-76
2022/07/07 12:12:58;;;;;;;3.72;0.40;;;;;;;;;;5089714;28;20081;-76
2022/07/07 12:15:27;;;;;;;4.82;0.50;;;;;;;;;;5091762;28;20031;-76
2022/07/07 12:17:53;;;;;;;4.15;0.57;;;;;;;;;;5094954;28;20451;-76
2022/07/07 12:20:20;;;;;;;1.77;0.40;;;;;;;;;;5093671;28;20126;-76
2022/07/07 12:22:50;;;;;;;2.28;0.60;;;;;;;;;;5101335;28;20039;-76
2022/07/07 12:25:16;;;;;;;2.97;0.50;;;;;;;;;;5097594;28;20035;-76
2022/07/07 12:27:56;;;;;;;1.60;0.52;;;;;;;;;;5091159;28;20105;-77
2022/07/07 12:30:22;;;;;;;2.60;0.50;;;;;;;;;;5096552;28;20110;-76
2022/07/07 12:32:48;;;;;;;2.90;0.47;;;;;;;;;;5095497;28;20040;-76
2022/07/07 12:35:27;;;;;;;1.73;0.45;;;;;;;;;;5091412;28;20173;-76
2022/07/07 12:37:53;;;;;;;4.47;0.40;;;;;;;;;;5094176;28;20397;-76
2022/07/07 12:40:19;;;;;;;4.47;0.65;;;;;;;;;;5094733;28;20428;-76
2022/07/07 12:42:46;;;;;;;2.20;0.45;;;;;;;;;;5092708;28;20032;-76
2022/07/07 12:45:12;;;;;;;2.75;0.52;;;;;;;;;;5098855;28;20047;-76
2022/07/07 12:47:48;;;;;;;4.15;0.63;;;;;;;;;;5099683;28;20462;-76
2022/07/07 12:50:15;;;;;;;6.25;0.63;;;;;;;;;;5096621;28;20042;-76
2022/07/07 12:52:41;;;;;;;6.15;0.55;;;;;;;;;;5097272;28;20051;-76
2022/07/07 12:55:11;;;;;;;1.48;0.30;;;;;;;;;;5100420;28;20026;-76
2022/07/07 12:57:37;;;;;;;2.45;0.40;;;;;;;;;;5092530;28;20649;-76
2022/07/07 13:00:05;;;;;;;3.03;0.60;;;;;;;;;;5097514;28;20575;-76
2022/07/07 13:02:31;;;;;;;5.20;0.40;;;;;;;;;;5091731;28;20109;-76
2022/07/07 13:04:57;;;;;;;6.13;0.60;;;;;;;;;;5095925;28;20352;-76
2022/07/07 13:07:23;;;;;;;1.38;0.32;;;;;;;;;;5093915;28;20044;-76
2022/07/07 13:09:49;;;;;;;2.88;0.57;;;;;;;;;;5098751;28;20028;-76
2022/07/07 13:12:17;;;;;;;4.13;0.70;;;;;;;;;;5097756;28;20052;-76
2022/07/07 13:14:44;;;;;;;3.38;0.43;;;;;;;;;;5097697;28;20020;-76
2022/07/07 13:17:11;;;;;;;2.08;0.50;;;;;;;;;;5099183;28;20637;-76
2022/07/07 13:19:37;;;;;;;3.92;0.90;;;;;;;;;;5098566;28;20055;-76
2022/07/07 13:22:04;;;;;;;3.90;0.70;;;;;;;;;;5096784;28;20119;-76
2022/07/07 13:24:30;;;;;;;2.22;0.35;;;;;;;;;;5093424;28;20026;-76
2022/07/07 13:26:57;;;;;;;2.85;0.40;;;;;;;;;;5095405;28;20023;-76
2022/07/07 13:29:23;;;;;;;4.50;0.32;;;;;;;;;;5098700;28;20351;-76
2022/07/07 13:31:49;;;;;;;2.85;0.38;;;;;;;;;;5092026;28;20038;-76
2022/07/07 13:34:16;;;;;;;2.42;0.40;;;;;;;;;;5096535;28;20436;-76
2022/07/07 13:36:42;;;;;;;3.85;0.70;;;;;;;;;;5092099;28;20039;-76
2022/07/07 13:39:08;;;;;;;3.22;0.60;;;;;;;;;;5096899;28;20066;-76
2022/07/07 13:41:34;;;;;;;3.25;0.50;;;;;;;;;;5097458;28;20034;-76
2022/07/07 13:44:00;;;;;;;6.05;0.50;;;;;;;;;;5096655;28;20063;-76
2022/07/07 13:46:26;;;;;;;3.22;0.40;;;;;;;;;;5092367;28;20039;-76
2022/07/07 13:48:52;;;;;;;1.55;0.40;;;;;;;;;;5097538;28;20082;-76
2022/07/07 13:51:18;;;;;;;1.08;0.32;;;;;;;;;;5096146;28;20039;-76
2022/07/07 13:53:44;;;;;;;1.60;0.40;;;;;;;;;;5096111;28;20611;-76
2022/07/07 13:56:10;;;;;;;1.23;0.20;;;;;;;;;;5097359;28;20126;-76
2022/07/07 13:58:36;;;;;;;3.90;0.50;;;;;;;;;;5090776;28;20133;-76
2022/07/07 14:01:02;;;;;;;2.33;0.40;;;;;;;;;;5096028;28;20144;-76
2022/07/07 14:03:28;;;;;;;1.88;0.50;;;;;;;;;;5092972;28;20032;-76
2022/07/07 14:05:54;;;;;;;6.45;0.55;;;;;;;;;;5101111;28;20046;-76
2022/07/07 14:08:20;;;;;;;4.40;0.65;;;;;;;;;;5100298;28;20054;-76
2022/07/07 14:10:46;;;;;;;12.55;0.70;;;;;;;;;;5097691;28;20059;-76
2022/07/07 14:13:12;;;;;;;8.93;0.60;;;;;;;;;;5094854;28;20039;-76
2022/07/07 14:15:40;;;;;;;3.28;0.40;;;;;;;;;;5094423;28;20033;-76
2022/07/07 14:18:06;;;;;;;3.72;0.50;;;;;;;;;;5096860;28;20020;-76
2022/07/07 14:20:32;;;;;;;15.23;0.70;;;;;;;;;;5095921;28;20031;-76
2022/07/07 14:22:58;;;;;;;12.57;0.77;;;;;;;;;;5100509;28;20035;-76
2022/07/07 14:25:24;;;;;;;7.68;0.35;;;;;;;;;;5099334;28;20050;-76
2022/07/07 14:27:50;;;;;;;2.83;0.50;;;;;;;;;;5097257;28;20066;-76
2022/07/07 14:30:16;;;;;;;5.22;0.50;;;;;;;;;;5098186;28;20831;-76
2022/07/07 14:32:43;;;;;;;2.78;0.40;;;;;;;;;;5093559;28;20032;-76
2022/07/07 14:35:09;;;;;;;1.60;0.30;;;;;;;;;;5097486;28;20032;-76
2022/07/07 14:37:35;;;;;;;6.88;0.60;;;;;;;;;;5102248;28;20035;-76
2022/07/07 14:40:01;;;;;;;4.22;0.50;;;;;;;;;;5097107;28;20020;-76
2022/07/07 14:42:27;;;;;;;4.88;0.70;;;;;;;;;;5094683;28;20501;-76
2022/07/07 14:44:54;;;;;;;6.55;0.63;;;;;;;;;;5094443;28;20051;-76